createdAt,value
2022-09-26T00:01:16.529Z,28.00
2022-09-26T00:03:45.386Z,15.55
2022-09-26T00:06:12.867Z,17.35
2022-09-26T00:08:40.387Z,17.75
2022-09-26T00:11:09.852Z,16.42
2022-09-26T00:13:39.192Z,24.15
2022-09-26T00:16:06.286Z,31.85
2022-09-26T00:18:33.716Z,18.92
2022-09-26T00:21:14.694Z,19.35
2022-09-26T00:23:44.692Z,21.45
2022-09-26T00:26:13.019Z,25.20
2022-09-26T00:28:40.343Z,24.52
2022-09-26T00:31:13.652Z,20.30
2022-09-26T00:33:40.563Z,22.70
2022-09-26T00:36:07.933Z,22.70
2022-09-26T00:38:35.455Z,25.70
2022-09-26T00:41:02.292Z,22.58
2022-09-26T00:43:46.212Z,34.10
2022-09-26T00:46:15.969Z,32.30
2022-09-26T00:48:46.366Z,22.42
2022-09-26T00:51:13.316Z,23.92
2022-09-26T00:53:45.273Z,24.20
2022-09-26T00:56:17.846Z,23.60
2022-09-26T00:58:56.747Z,29.10
2022-09-26T01:01:23.652Z,20.88
2022-09-26T01:03:51.697Z,21.73
2022-09-26T01:06:20.139Z,27.48
2022-09-26T01:08:53.830Z,22.13
2022-09-26T01:11:21.100Z,21.88
2022-09-26T01:13:48.732Z,21.20
2022-09-26T01:16:15.422Z,25.92
2022-09-26T01:18:43.350Z,21.50
2022-09-26T01:21:25.123Z,34.92
2022-09-26T01:23:51.805Z,20.50
2022-09-26T01:26:45.761Z,30.65
2022-09-26T01:29:34.220Z,30.25
2022-09-26T01:32:39.053Z,27.13
2022-09-26T01:35:21.337Z,23.35
2022-09-26T01:37:59.501Z,23.05
2022-09-26T01:40:45.695Z,36.88
2022-09-26T01:43:47.809Z,22.48
2022-09-26T01:46:33.329Z,29.83
2022-09-26T01:49:09.628Z,25.60
2022-09-26T01:51:51.144Z,21.58
2022-09-26T01:54:24.583Z,26.83
2022-09-26T01:56:57.589Z,17.30
2022-09-26T01:59:30.497Z,23.50
2022-09-26T02:02:03.025Z,17.33
2022-09-26T02:04:37.143Z,15.73
2022-09-26T02:07:19.034Z,18.38
2022-09-26T02:09:51.250Z,20.80
2022-09-26T02:12:32.981Z,25.45
2022-09-26T02:15:05.102Z,22.20
2022-09-26T02:30:40.269Z,25.45
2022-09-26T02:33:06.963Z,16.63
2022-09-26T02:35:52.271Z,20.00
2022-09-26T02:38:23.708Z,20.02
2022-09-26T02:41:09.154Z,20.38
2022-09-26T02:44:00.829Z,21.50
2022-09-26T02:46:54.927Z,16.45
2022-09-26T02:49:29.979Z,17.30
2022-09-26T02:52:08.995Z,26.45
2022-09-26T02:55:06.932Z,21.75
2022-09-26T02:58:15.424Z,13.20
2022-09-26T03:01:02.343Z,15.82
2022-09-26T03:03:53.996Z,16.08
2022-09-26T03:06:27.362Z,18.20
2022-09-26T03:08:56.843Z,14.88
2022-09-26T03:11:25.907Z,23.98
2022-09-26T03:13:54.835Z,17.58
2022-09-26T03:16:23.922Z,15.30
2022-09-26T03:19:01.251Z,15.73
2022-09-26T03:21:28.220Z,13.35
2022-09-26T03:23:58.186Z,17.35
2022-09-26T03:26:28.186Z,11.55
2022-09-26T03:28:56.964Z,14.10
2022-09-26T03:31:25.429Z,20.50
2022-09-26T03:33:52.757Z,13.93
2022-09-26T03:36:22.524Z,17.75
2022-09-26T03:38:49.573Z,14.25
2022-09-26T03:41:16.258Z,17.13
2022-09-26T03:43:43.973Z,26.80
2022-09-26T03:46:12.608Z,21.02
2022-09-26T03:48:40.285Z,18.95
2022-09-26T03:51:10.166Z,17.13
2022-09-26T03:53:39.938Z,16.05
2022-09-26T03:56:15.284Z,20.88
2022-09-26T03:58:42.854Z,17.92
2022-09-26T04:01:13.526Z,22.95
2022-09-26T04:03:46.447Z,18.98
2022-09-26T04:06:21.024Z,21.45
2022-09-26T04:08:50.454Z,18.27
2022-09-26T04:11:23.012Z,20.70
2022-09-26T04:13:52.848Z,28.80
2022-09-26T04:16:22.837Z,17.77
2022-09-26T04:18:50.520Z,32.72
2022-09-26T04:21:17.433Z,20.77
2022-09-26T04:23:44.856Z,20.58
2022-09-26T04:26:18.695Z,22.10
2022-09-26T04:28:50.564Z,19.67
2022-09-26T04:31:17.415Z,20.52
2022-09-26T04:33:45.270Z,15.18
2022-09-26T04:36:13.801Z,16.02
2022-09-26T04:38:41.280Z,22.25
2022-09-26T04:41:17.010Z,18.52
2022-09-26T04:43:44.058Z,26.65
2022-09-26T04:46:17.172Z,17.40
2022-09-26T04:48:48.466Z,19.67
2022-09-26T04:51:16.974Z,24.55
2022-09-26T04:53:44.199Z,18.80
2022-09-26T04:56:14.087Z,18.30
2022-09-26T04:58:42.398Z,18.92
2022-09-26T05:01:12.342Z,21.80
2022-09-26T05:03:39.493Z,15.93
2022-09-26T05:06:09.118Z,22.75
2022-09-26T05:08:41.381Z,17.73
2022-09-26T05:11:09.417Z,23.73
2022-09-26T05:13:37.951Z,18.92
2022-09-26T05:16:08.644Z,23.15
2022-09-26T05:18:37.175Z,19.42
2022-09-26T05:21:05.975Z,19.35
2022-09-26T05:23:51.783Z,15.25
2022-09-26T05:26:28.314Z,14.95
2022-09-26T05:28:57.259Z,17.10
2022-09-26T05:31:26.315Z,14.20
2022-09-26T05:33:53.245Z,11.38
2022-09-26T05:36:19.996Z,15.48
2022-09-26T05:38:46.730Z,19.05
2022-09-26T05:41:14.816Z,11.55
2022-09-26T05:43:41.574Z,19.77
2022-09-26T05:46:10.826Z,18.77
2022-09-26T05:48:39.090Z,11.57
2022-09-26T05:51:11.900Z,16.52
2022-09-26T05:53:40.145Z,10.98
2022-09-26T05:56:07.535Z,13.65
2022-09-26T05:58:36.926Z,10.00
2022-09-26T06:01:09.426Z,12.52
2022-09-26T06:03:36.958Z,9.98
2022-09-26T06:06:05.023Z,12.82
2022-09-26T06:08:33.990Z,12.55
2022-09-26T06:11:10.963Z,17.30
2022-09-26T06:13:38.161Z,11.88
2022-09-26T06:16:09.476Z,8.85
2022-09-26T06:18:42.591Z,8.13
2022-09-26T06:21:16.256Z,8.90
2022-09-26T06:42:43.194Z,8.50
2022-09-26T06:45:11.498Z,8.27
2022-09-26T06:53:08.119Z,14.20
2022-09-26T06:55:39.907Z,7.47
2022-09-26T06:58:07.472Z,8.13
2022-09-26T07:00:35.757Z,8.85
2022-09-26T07:03:03.069Z,7.25
2022-09-26T07:05:29.878Z,10.63
2022-09-26T07:07:57.814Z,7.93
2022-09-26T07:10:25.556Z,8.50
2022-09-26T07:12:53.272Z,10.52
2022-09-26T07:15:20.766Z,8.52
2022-09-26T07:17:48.414Z,5.07
2022-09-26T07:20:17.780Z,13.88
2022-09-26T07:22:44.783Z,10.88
2022-09-26T07:25:12.788Z,8.38
2022-09-26T07:27:40.837Z,5.88
2022-09-26T07:30:09.219Z,7.30
2022-09-26T07:32:36.405Z,9.70
2022-09-26T07:35:03.909Z,8.82
2022-09-26T07:37:32.063Z,11.25
2022-09-26T07:40:01.625Z,10.48
2022-09-26T07:42:28.770Z,7.63
2022-09-26T07:45:24.278Z,10.70
2022-09-26T07:48:00.829Z,9.70
2022-09-26T07:50:33.776Z,10.90
2022-09-26T07:53:00.540Z,8.65
2022-09-26T07:55:30.698Z,6.65
2022-09-26T07:58:00.406Z,7.10
2022-09-26T08:00:34.254Z,8.55
2022-09-26T08:03:01.769Z,6.95
2022-09-26T08:05:30.094Z,8.73
2022-09-26T08:07:57.523Z,8.70
2022-09-26T08:10:24.604Z,9.10
2022-09-26T08:12:51.281Z,10.85
2022-09-26T08:15:17.992Z,13.95
2022-09-26T08:17:44.696Z,10.77
2022-09-26T08:20:12.053Z,10.13
2022-09-26T08:22:38.755Z,13.00
2022-09-26T08:25:07.321Z,8.55
2022-09-26T08:27:34.620Z,11.07
2022-09-26T08:30:04.430Z,9.27
2022-09-26T08:32:32.465Z,13.77
2022-09-26T08:35:00.259Z,7.10
2022-09-26T08:37:28.197Z,11.27
2022-09-26T08:39:54.933Z,15.18
2022-09-26T08:42:45.614Z,9.75
2022-09-26T08:45:52.687Z,9.57
2022-09-26T08:48:28.603Z,8.73
2022-09-26T08:51:02.046Z,15.40
2022-09-26T08:53:40.816Z,9.27
2022-09-26T08:56:19.254Z,10.77
2022-09-26T08:58:52.324Z,11.30
2022-09-26T09:01:29.131Z,11.85
2022-09-26T09:04:07.091Z,12.60
2022-09-26T09:06:35.180Z,13.90
2022-09-26T09:09:02.042Z,15.10
2022-09-26T09:12:02.082Z,11.43
2022-09-26T09:15:02.304Z,10.88
2022-09-26T09:17:48.395Z,9.15
2022-09-26T09:20:38.872Z,12.73
2022-09-26T09:23:21.610Z,13.13
2022-09-26T09:29:49.164Z,12.85
2022-09-26T09:32:20.094Z,7.63
2022-09-26T09:34:53.670Z,11.02
2022-09-26T09:37:37.908Z,14.90
2022-09-26T09:40:12.446Z,10.95
2022-09-26T09:43:03.965Z,14.48
2022-09-26T09:45:45.199Z,9.82
2022-09-26T09:48:16.052Z,12.85
2022-09-26T09:51:24.423Z,10.05
2022-09-26T09:54:10.095Z,8.52
2022-09-26T09:56:58.423Z,10.10
2022-09-26T09:59:46.217Z,8.75
2022-09-26T10:02:19.549Z,9.63
2022-09-26T10:07:16.436Z,12.20
2022-09-26T10:09:46.536Z,15.63
2022-09-26T10:12:20.188Z,11.32
2022-09-26T10:14:53.124Z,11.70
2022-09-26T10:17:23.826Z,9.45
2022-09-26T10:19:51.136Z,8.43
2022-09-26T11:32:56.560Z,6.03
2022-09-26T11:36:19.620Z,7.05
2022-09-26T11:50:47.886Z,8.25
2022-09-26T11:54:10.099Z,8.57
2022-09-26T11:56:42.819Z,7.93
2022-09-26T11:59:39.849Z,6.65
2022-09-26T12:02:32.661Z,10.68
2022-09-26T12:05:02.360Z,9.30
2022-09-26T12:08:06.291Z,10.68
2022-09-26T12:10:53.405Z,14.30
2022-09-26T12:13:38.766Z,13.75
2022-09-26T12:16:22.941Z,10.68
2022-09-26T12:19:16.629Z,26.40
2022-09-26T12:22:17.578Z,10.43
2022-09-26T12:24:49.959Z,12.02
2022-09-26T12:27:34.047Z,12.30
2022-09-26T12:30:17.363Z,12.18
2022-09-26T12:32:56.761Z,16.58
2022-09-26T12:35:32.284Z,10.45
2022-09-26T12:38:17.121Z,13.45
2022-09-26T12:40:56.227Z,12.00
2022-09-26T12:44:00.297Z,9.75
2022-09-26T12:49:44.048Z,14.52
2022-09-26T12:52:30.365Z,12.73
2022-09-26T12:55:27.754Z,12.43
2022-09-26T12:58:00.855Z,12.55
2022-09-26T13:00:37.175Z,17.50
2022-09-26T13:03:22.009Z,8.07
2022-09-26T13:06:08.338Z,7.70
2022-09-26T13:08:57.485Z,13.60
2022-09-26T13:11:32.725Z,14.45
2022-09-26T13:14:21.597Z,10.63
2022-09-26T13:17:10.102Z,10.88
2022-09-26T13:20:03.867Z,11.63
2022-09-26T13:25:25.167Z,12.02
2022-09-26T13:28:24.442Z,11.98
2022-09-26T13:31:02.099Z,10.50
2022-09-26T13:33:40.519Z,13.15
2022-09-26T13:36:10.064Z,7.55
2022-09-26T13:38:58.260Z,10.13
2022-09-26T13:42:02.357Z,10.43
2022-09-26T13:45:00.472Z,8.65
2022-09-26T13:47:39.646Z,11.70
2022-09-26T13:50:29.384Z,7.07
2022-09-26T13:53:17.768Z,10.15
2022-09-26T13:55:45.575Z,6.95
2022-09-26T13:58:24.986Z,7.30
2022-09-26T14:00:54.947Z,9.77
2022-09-26T14:03:22.971Z,9.85
2022-09-26T14:05:52.698Z,7.82
2022-09-26T14:08:44.009Z,10.38
2022-09-26T14:11:19.976Z,10.57
2022-09-26T14:13:48.721Z,14.65
2022-09-26T14:16:36.811Z,19.02
2022-09-26T14:19:11.147Z,15.75
2022-09-26T14:21:46.557Z,14.80
2022-09-26T14:24:33.521Z,15.38
2022-09-26T14:27:04.433Z,17.55
2022-09-26T14:29:40.367Z,20.83
2022-09-26T14:32:10.579Z,16.75
2022-09-26T14:34:49.348Z,12.45
2022-09-26T14:37:41.340Z,17.67
2022-09-26T14:40:08.343Z,16.45
2022-09-26T14:42:38.047Z,13.18
2022-09-26T14:45:21.096Z,17.58
2022-09-26T14:48:03.625Z,22.70
2022-09-26T14:53:53.334Z,14.65
2022-09-26T14:59:44.748Z,20.77
2022-09-26T15:02:16.080Z,16.13
2022-09-26T15:04:48.228Z,17.27
2022-09-26T15:10:23.009Z,15.15
2022-09-26T15:22:04.560Z,21.58
2022-09-26T15:30:22.045Z,16.73
2022-09-26T15:38:14.020Z,16.35
2022-09-26T15:40:45.360Z,21.83
2022-09-26T15:54:42.458Z,17.30
2022-09-26T16:02:40.188Z,18.65
2022-09-26T16:18:57.706Z,15.25
2022-09-26T16:27:28.973Z,16.38
2022-09-26T16:49:48.659Z,22.40
2022-09-26T16:52:25.300Z,12.90
2022-09-26T16:54:54.482Z,12.80
2022-09-26T16:57:24.766Z,12.70
2022-09-26T16:59:53.118Z,19.40
2022-09-26T17:02:27.545Z,11.27
2022-09-26T17:04:54.856Z,18.95
2022-09-26T17:07:23.075Z,14.68
2022-09-26T17:09:50.106Z,15.85
2022-09-26T17:12:22.754Z,18.65
2022-09-26T17:14:56.869Z,17.70
2022-09-26T17:17:27.890Z,39.13
2022-09-26T17:19:59.544Z,16.05
2022-09-26T17:22:28.452Z,24.10
2022-09-26T17:24:55.777Z,19.85
2022-09-26T17:27:30.657Z,17.67
2022-09-26T17:30:05.616Z,19.05
2022-09-26T17:32:46.337Z,17.15
2022-09-26T17:35:21.044Z,17.73
2022-09-26T17:37:51.436Z,19.08
2022-09-26T17:40:24.514Z,10.15
2022-09-26T17:48:37.757Z,11.48
2022-09-26T17:51:05.984Z,15.85
2022-09-26T17:53:40.317Z,10.25
2022-09-26T17:56:13.479Z,8.48
2022-09-26T17:58:44.385Z,18.75
2022-09-26T18:01:36.360Z,19.73
2022-09-26T18:04:08.302Z,14.27
2022-09-26T18:09:19.451Z,17.85
2022-09-26T18:12:05.074Z,17.25
2022-09-26T18:14:34.206Z,19.15
2022-09-26T18:17:01.701Z,10.93
2022-09-26T18:19:29.178Z,14.43
2022-09-26T18:24:42.009Z,16.77
2022-09-26T18:27:14.573Z,16.42
2022-09-26T18:29:45.298Z,25.08
2022-09-26T18:32:22.174Z,15.48
2022-09-26T18:34:49.007Z,17.70
2022-09-26T18:37:16.422Z,12.43
2022-09-26T18:39:43.431Z,14.80
2022-09-26T18:42:13.961Z,17.55
2022-09-26T18:44:42.304Z,14.25
2022-09-26T18:47:17.655Z,14.50
2022-09-26T18:49:47.285Z,14.40
2022-09-26T18:52:16.578Z,10.75
2022-09-26T18:54:45.335Z,15.90
2022-09-26T18:57:31.003Z,12.75
2022-09-26T19:00:00.304Z,13.07
2022-09-26T19:02:33.595Z,15.13
2022-09-26T19:05:02.782Z,11.30
2022-09-26T19:07:33.491Z,11.25
2022-09-26T19:10:00.513Z,12.60
2022-09-26T19:12:27.314Z,12.27
2022-09-26T19:14:53.994Z,12.50
2022-09-26T19:17:20.938Z,12.48
2022-09-26T19:19:47.594Z,12.60
2022-09-26T19:22:17.506Z,17.63
2022-09-26T19:24:59.433Z,14.48
2022-09-26T19:27:30.376Z,8.98
2022-09-26T19:29:59.890Z,13.10
2022-09-26T19:32:44.688Z,15.70
2022-09-26T19:35:23.268Z,13.50
2022-09-26T19:37:50.098Z,13.80
2022-09-26T19:40:18.776Z,13.35
2022-09-26T19:42:46.219Z,17.20
2022-09-26T19:45:14.366Z,11.57
2022-09-26T19:47:45.067Z,16.95
2022-09-26T19:50:23.527Z,12.38
2022-09-26T19:52:52.863Z,15.93
2022-09-26T19:55:24.422Z,11.73
2022-09-26T19:57:53.001Z,17.23
2022-09-26T20:00:20.310Z,15.65
2022-09-26T20:02:50.601Z,17.40
2022-09-26T20:05:22.193Z,15.55
2022-09-26T20:07:49.238Z,12.30
2022-09-26T20:10:19.147Z,16.95
2022-09-26T20:12:47.078Z,13.32
2022-09-26T20:15:15.049Z,12.18
2022-09-26T20:17:44.623Z,12.63
2022-09-26T20:20:23.415Z,12.98
2022-09-26T20:22:51.683Z,9.50
2022-09-26T20:25:27.062Z,9.90
2022-09-26T20:27:54.792Z,13.40
2022-09-26T20:30:39.890Z,11.80
2022-09-26T20:33:06.922Z,11.68
2022-09-26T20:35:36.991Z,14.52
2022-09-26T20:38:07.328Z,8.68
2022-09-26T20:40:35.331Z,9.07
2022-09-26T20:43:05.531Z,14.10
2022-09-26T20:45:40.881Z,9.73
2022-09-26T20:48:18.950Z,14.77
2022-09-26T20:50:46.051Z,9.90
2022-09-26T20:53:21.119Z,12.65
2022-09-26T20:55:48.742Z,10.18
2022-09-26T20:58:15.430Z,13.32
2022-09-26T21:00:44.156Z,13.50
2022-09-26T21:03:17.419Z,12.93
2022-09-26T21:08:30.993Z,12.00
2022-09-26T21:10:59.368Z,11.05
2022-09-26T21:13:26.062Z,15.43
2022-09-26T21:15:53.257Z,10.82
2022-09-26T21:18:29.475Z,11.95
2022-09-26T21:21:04.127Z,11.75
2022-09-26T21:23:31.419Z,13.52
2022-09-26T21:25:58.127Z,11.15
2022-09-26T21:28:27.153Z,8.55
2022-09-26T21:31:05.042Z,9.27
2022-09-26T21:33:31.844Z,11.55
2022-09-26T21:35:58.577Z,11.43
2022-09-26T21:38:26.623Z,10.50
2022-09-26T21:40:59.748Z,13.23
2022-09-26T21:43:31.868Z,10.73
2022-09-26T21:45:58.914Z,12.05
2022-09-26T21:48:26.164Z,9.98
2022-09-26T21:50:58.287Z,10.43
2022-09-26T21:53:45.714Z,7.43
2022-09-26T21:56:20.768Z,11.48
2022-09-26T21:58:48.409Z,9.70
2022-09-26T22:01:15.583Z,9.13
2022-09-26T22:03:42.383Z,12.85
2022-09-26T22:06:10.102Z,10.98
2022-09-26T22:08:38.343Z,10.73
2022-09-26T22:11:06.334Z,7.07
2022-09-26T22:13:36.192Z,12.10
2022-09-26T22:16:06.799Z,15.55
2022-09-26T22:18:34.979Z,10.73
2022-09-26T22:21:04.451Z,7.05
2022-09-26T22:23:32.648Z,8.07
2022-09-26T22:25:59.616Z,17.67
2022-09-26T22:28:26.931Z,13.98
2022-09-26T22:30:54.726Z,9.98
2022-09-26T22:33:22.967Z,12.88
2022-09-26T22:35:50.826Z,15.88
2022-09-26T22:38:20.814Z,15.43
2022-09-26T22:40:55.936Z,12.55
2022-09-26T22:43:22.905Z,10.05
2022-09-26T22:45:49.858Z,10.32
2022-09-26T22:48:17.190Z,12.45
2022-09-26T22:50:44.747Z,13.32
2022-09-26T22:53:12.442Z,9.73
2022-09-26T22:55:39.168Z,8.40
2022-09-26T22:58:05.951Z,12.57
2022-09-26T23:00:32.578Z,9.18
2022-09-26T23:02:59.351Z,13.98
2022-09-26T23:05:26.023Z,11.75
2022-09-26T23:07:55.875Z,13.25
2022-09-26T23:10:22.510Z,8.38
2022-09-26T23:12:50.771Z,13.77
2022-09-26T23:15:18.547Z,16.40
2022-09-26T23:17:46.769Z,8.73
2022-09-26T23:20:13.435Z,13.95
2022-09-26T23:22:40.436Z,14.65
2022-09-26T23:25:08.685Z,15.98
2022-09-26T23:27:35.535Z,16.88
2022-09-26T23:30:02.449Z,13.13
2022-09-26T23:32:29.120Z,13.57
2022-09-26T23:34:55.788Z,16.95
2022-09-26T23:37:22.623Z,14.38
2022-09-26T23:39:49.390Z,12.05
2022-09-26T23:42:16.046Z,12.32
2022-09-26T23:44:42.770Z,11.52
2022-09-26T23:47:09.473Z,13.32
2022-09-26T23:49:36.142Z,10.57
2022-09-26T23:52:02.902Z,11.90
2022-09-26T23:54:29.623Z,14.63
2022-09-26T23:56:56.250Z,17.45
2022-09-26T23:59:23.093Z,15.07
